sensor_id;sensor_type;location;lat;lon;timestamp;temperature;humidity
36450;DHT22;22475;51.390;7.180;2023-04-15T00:00:59;13.10;84.60
36450;DHT22;22475;51.390;7.180;2023-04-15T00:03:26;13.10;84.50
36450;DHT22;22475;51.390;7.180;2023-04-15T00:05:56;13.10;84.60
36450;DHT22;22475;51.390;7.180;2023-04-15T00:08:24;13.10;84.80
36450;DHT22;22475;51.390;7.180;2023-04-15T00:10:51;13.10;85.90
36450;DHT22;22475;51.390;7.180;2023-04-15T00:13:19;13.10;85.20
36450;DHT22;22475;51.390;7.180;2023-04-15T00:15:46;13.10;85.10
36450;DHT22;22475;51.390;7.180;2023-04-15T00:18:13;13.10;84.90
36450;DHT22;22475;51.390;7.180;2023-04-15T00:20:40;13.10;84.80
36450;DHT22;22475;51.390;7.180;2023-04-15T00:23:07;13.10;84.60
36450;DHT22;22475;51.390;7.180;2023-04-15T00:25:33;13.10;84.40
36450;DHT22;22475;51.390;7.180;2023-04-15T00:28:00;13.10;84.50
36450;DHT22;22475;51.390;7.180;2023-04-15T00:30:28;13.10;84.70
36450;DHT22;22475;51.390;7.180;2023-04-15T00:32:55;13.10;84.60
36450;DHT22;22475;51.390;7.180;2023-04-15T00:35:22;13.00;84.80
36450;DHT22;22475;51.390;7.180;2023-04-15T00:37:49;13.00;85.00
36450;DHT22;22475;51.390;7.180;2023-04-15T00:40:18;13.10;85.10
36450;DHT22;22475;51.390;7.180;2023-04-15T00:42:45;13.00;85.20
36450;DHT22;22475;51.390;7.180;2023-04-15T00:45:12;13.00;85.00
36450;DHT22;22475;51.390;7.180;2023-04-15T00:47:40;13.00;85.10
36450;DHT22;22475;51.390;7.180;2023-04-15T00:50:09;13.00;85.10
36450;DHT22;22475;51.390;7.180;2023-04-15T00:52:36;13.00;85.10
36450;DHT22;22475;51.390;7.180;2023-04-15T00:55:04;13.10;85.20
36450;DHT22;22475;51.390;7.180;2023-04-15T00:57:31;13.00;85.00
36450;DHT22;22475;51.390;7.180;2023-04-15T00:59:58;13.00;84.70
36450;DHT22;22475;51.390;7.180;2023-04-15T01:02:26;13.00;84.50
36450;DHT22;22475;51.390;7.180;2023-04-15T01:04:55;13.00;84.40
36450;DHT22;22475;51.390;7.180;2023-04-15T01:07:22;13.00;84.60
36450;DHT22;22475;51.390;7.180;2023-04-15T01:09:49;13.00;84.70
36450;DHT22;22475;51.390;7.180;2023-04-15T01:12:18;13.00;84.80
36450;DHT22;22475;51.390;7.180;2023-04-15T01:14:45;13.00;84.90
36450;DHT22;22475;51.390;7.180;2023-04-15T01:17:12;13.00;84.90
36450;DHT22;22475;51.390;7.180;2023-04-15T01:19:39;13.00;85.00
36450;DHT22;22475;51.390;7.180;2023-04-15T01:22:08;13.00;85.00
36450;DHT22;22475;51.390;7.180;2023-04-15T01:24:36;13.00;84.60
36450;DHT22;22475;51.390;7.180;2023-04-15T01:27:04;13.00;84.40
36450;DHT22;22475;51.390;7.180;2023-04-15T01:29:31;13.00;84.10
36450;DHT22;22475;51.390;7.180;2023-04-15T01:31:58;13.00;84.10
36450;DHT22;22475;51.390;7.180;2023-04-15T01:34:25;12.90;84.10
36450;DHT22;22475;51.390;7.180;2023-04-15T01:36:52;13.00;84.30
36450;DHT22;22475;51.390;7.180;2023-04-15T01:39:18;12.90;85.00
36450;DHT22;22475;51.390;7.180;2023-04-15T01:41:45;12.90;84.30
36450;DHT22;22475;51.390;7.180;2023-04-15T01:44:14;12.90;84.10
36450;DHT22;22475;51.390;7.180;2023-04-15T01:46:41;12.90;84.10
36450;DHT22;22475;51.390;7.180;2023-04-15T01:49:07;12.90;84.20
36450;DHT22;22475;51.390;7.180;2023-04-15T01:51:34;12.90;84.10
36450;DHT22;22475;51.390;7.180;2023-04-15T01:54:01;12.90;84.10
36450;DHT22;22475;51.390;7.180;2023-04-15T01:56:28;12.90;84.10
36450;DHT22;22475;51.390;7.180;2023-04-15T01:58:55;12.90;84.00
36450;DHT22;22475;51.390;7.180;2023-04-15T02:01:23;12.90;83.90
36450;DHT22;22475;51.390;7.180;2023-04-15T02:03:50;12.90;83.70
36450;DHT22;22475;51.390;7.180;2023-04-15T02:06:16;12.90;83.70
36450;DHT22;22475;51.390;7.180;2023-04-15T02:08:43;12.90;83.60
36450;DHT22;22475;51.390;7.180;2023-04-15T02:11:10;12.80;83.40
36450;DHT22;22475;51.390;7.180;2023-04-15T02:13:37;12.80;83.50
36450;DHT22;22475;51.390;7.180;2023-04-15T02:16:14;12.80;83.70
36450;DHT22;22475;51.390;7.180;2023-04-15T02:18:43;12.80;83.90
36450;DHT22;22475;51.390;7.180;2023-04-15T02:21:10;12.80;83.80
36450;DHT22;22475;51.390;7.180;2023-04-15T02:23:37;12.80;84.00
36450;DHT22;22475;51.390;7.180;2023-04-15T02:26:03;12.80;83.90
36450;DHT22;22475;51.390;7.180;2023-04-15T02:28:30;12.80;84.70
36450;DHT22;22475;51.390;7.180;2023-04-15T02:30:57;12.80;83.90
36450;DHT22;22475;51.390;7.180;2023-04-15T02:33:24;12.80;83.60
36450;DHT22;22475;51.390;7.180;2023-04-15T02:35:52;12.80;83.30
36450;DHT22;22475;51.390;7.180;2023-04-15T02:38:19;12.80;83.20
36450;DHT22;22475;51.390;7.180;2023-04-15T02:40:45;12.70;83.10
36450;DHT22;22475;51.390;7.180;2023-04-15T02:43:14;12.70;83.00
36450;DHT22;22475;51.390;7.180;2023-04-15T02:45:41;12.70;82.90
36450;DHT22;22475;51.390;7.180;2023-04-15T02:48:08;12.70;82.80
36450;DHT22;22475;51.390;7.180;2023-04-15T02:50:36;12.70;82.80
36450;DHT22;22475;51.390;7.180;2023-04-15T02:53:05;12.70;83.10
36450;DHT22;22475;51.390;7.180;2023-04-15T02:55:32;12.70;83.40
36450;DHT22;22475;51.390;7.180;2023-04-15T02:57:59;12.70;83.70
36450;DHT22;22475;51.390;7.180;2023-04-15T03:00:26;12.70;84.00
36450;DHT22;22475;51.390;7.180;2023-04-15T03:02:57;12.70;83.90
36450;DHT22;22475;51.390;7.180;2023-04-15T03:05:24;12.70;83.60
36450;DHT22;22475;51.390;7.180;2023-04-15T03:07:51;12.70;83.40
36450;DHT22;22475;51.390;7.180;2023-04-15T03:10:19;12.70;83.20
36450;DHT22;22475;51.390;7.180;2023-04-15T03:12:46;12.70;83.30
36450;DHT22;22475;51.390;7.180;2023-04-15T03:15:13;12.70;83.40
36450;DHT22;22475;51.390;7.180;2023-04-15T03:17:40;12.70;83.20
36450;DHT22;22475;51.390;7.180;2023-04-15T03:20:07;12.70;83.30
36450;DHT22;22475;51.390;7.180;2023-04-15T03:22:34;12.70;83.20
36450;DHT22;22475;51.390;7.180;2023-04-15T03:25:01;12.70;83.30
36450;DHT22;22475;51.390;7.180;2023-04-15T03:27:29;12.60;83.40
36450;DHT22;22475;51.390;7.180;2023-04-15T03:29:56;12.70;83.60
36450;DHT22;22475;51.390;7.180;2023-04-15T03:32:23;12.60;83.40
36450;DHT22;22475;51.390;7.180;2023-04-15T03:34:50;12.70;83.40
36450;DHT22;22475;51.390;7.180;2023-04-15T03:37:16;12.60;83.40
36450;DHT22;22475;51.390;7.180;2023-04-15T03:39:43;12.60;83.30
36450;DHT22;22475;51.390;7.180;2023-04-15T03:42:10;12.60;83.30
36450;DHT22;22475;51.390;7.180;2023-04-15T03:44:38;12.60;83.40
36450;DHT22;22475;51.390;7.180;2023-04-15T03:47:05;12.60;83.30
36450;DHT22;22475;51.390;7.180;2023-04-15T03:49:32;12.60;83.40
36450;DHT22;22475;51.390;7.180;2023-04-15T03:51:59;12.60;83.30
36450;DHT22;22475;51.390;7.180;2023-04-15T03:54:26;12.60;83.20
36450;DHT22;22475;51.390;7.180;2023-04-15T03:56:52;12.60;83.10
36450;DHT22;22475;51.390;7.180;2023-04-15T03:59:19;12.60;83.10
36450;DHT22;22475;51.390;7.180;2023-04-15T04:01:47;12.60;83.00
36450;DHT22;22475;51.390;7.180;2023-04-15T04:04:15;12.60;83.20
36450;DHT22;22475;51.390;7.180;2023-04-15T04:06:42;12.50;83.00
36450;DHT22;22475;51.390;7.180;2023-04-15T04:09:08;12.50;83.00
36450;DHT22;22475;51.390;7.180;2023-04-15T04:11:35;12.50;83.20
36450;DHT22;22475;51.390;7.180;2023-04-15T04:14:02;12.50;83.20
36450;DHT22;22475;51.390;7.180;2023-04-15T04:16:29;12.50;83.20
36450;DHT22;22475;51.390;7.180;2023-04-15T04:18:57;12.60;83.10
36450;DHT22;22475;51.390;7.180;2023-04-15T04:21:24;12.50;82.90
36450;DHT22;22475;51.390;7.180;2023-04-15T04:23:51;12.50;82.80
36450;DHT22;22475;51.390;7.180;2023-04-15T04:26:17;12.50;82.70
36450;DHT22;22475;51.390;7.180;2023-04-15T04:28:45;12.50;82.60
36450;DHT22;22475;51.390;7.180;2023-04-15T04:31:11;12.50;82.60
36450;DHT22;22475;51.390;7.180;2023-04-15T04:33:38;12.50;82.50
36450;DHT22;22475;51.390;7.180;2023-04-15T04:36:07;12.50;82.50
36450;DHT22;22475;51.390;7.180;2023-04-15T04:38:33;12.50;82.40
36450;DHT22;22475;51.390;7.180;2023-04-15T04:41:00;12.50;82.30
36450;DHT22;22475;51.390;7.180;2023-04-15T04:43:27;12.50;82.20
36450;DHT22;22475;51.390;7.180;2023-04-15T04:45:54;12.50;82.10
36450;DHT22;22475;51.390;7.180;2023-04-15T04:48:20;12.50;82.00
36450;DHT22;22475;51.390;7.180;2023-04-15T04:50:47;12.40;81.80
36450;DHT22;22475;51.390;7.180;2023-04-15T04:53:15;12.50;81.80
36450;DHT22;22475;51.390;7.180;2023-04-15T04:55:42;12.40;81.80
36450;DHT22;22475;51.390;7.180;2023-04-15T04:58:09;12.40;81.80
36450;DHT22;22475;51.390;7.180;2023-04-15T05:00:36;12.40;81.80
36450;DHT22;22475;51.390;7.180;2023-04-15T05:03:03;12.40;81.80
36450;DHT22;22475;51.390;7.180;2023-04-15T05:05:30;12.40;81.80
36450;DHT22;22475;51.390;7.180;2023-04-15T05:07:56;12.40;81.70
36450;DHT22;22475;51.390;7.180;2023-04-15T05:10:25;12.40;81.70
36450;DHT22;22475;51.390;7.180;2023-04-15T05:12:51;12.40;81.70
36450;DHT22;22475;51.390;7.180;2023-04-15T05:15:18;12.50;81.60
36450;DHT22;22475;51.390;7.180;2023-04-15T05:17:45;12.40;81.50
36450;DHT22;22475;51.390;7.180;2023-04-15T05:20:12;12.40;81.50
36450;DHT22;22475;51.390;7.180;2023-04-15T05:22:39;12.30;81.50
36450;DHT22;22475;51.390;7.180;2023-04-15T05:25:06;12.40;81.60
36450;DHT22;22475;51.390;7.180;2023-04-15T05:27:35;12.30;81.80
36450;DHT22;22475;51.390;7.180;2023-04-15T05:30:02;12.40;82.00
36450;DHT22;22475;51.390;7.180;2023-04-15T05:32:29;12.40;81.90
36450;DHT22;22475;51.390;7.180;2023-04-15T05:34:55;12.30;81.80
36450;DHT22;22475;51.390;7.180;2023-04-15T05:37:22;12.40;81.80
36450;DHT22;22475;51.390;7.180;2023-04-15T05:39:50;12.40;81.80
36450;DHT22;22475;51.390;7.180;2023-04-15T05:42:17;12.30;81.70
36450;DHT22;22475;51.390;7.180;2023-04-15T05:44:45;12.30;81.70
36450;DHT22;22475;51.390;7.180;2023-04-15T05:47:11;12.40;81.80
36450;DHT22;22475;51.390;7.180;2023-04-15T05:49:38;12.30;81.80
36450;DHT22;22475;51.390;7.180;2023-04-15T05:52:05;12.40;81.80
36450;DHT22;22475;51.390;7.180;2023-04-15T05:54:32;12.40;81.90
36450;DHT22;22475;51.390;7.180;2023-04-15T05:56:58;12.30;82.60
36450;DHT22;22475;51.390;7.180;2023-04-15T05:59:26;12.40;81.90
36450;DHT22;22475;51.390;7.180;2023-04-15T06:01:54;12.30;81.90
36450;DHT22;22475;51.390;7.180;2023-04-15T06:04:21;12.40;81.90
36450;DHT22;22475;51.390;7.180;2023-04-15T06:06:48;12.30;81.80
36450;DHT22;22475;51.390;7.180;2023-04-15T06:09:15;12.30;81.80
36450;DHT22;22475;51.390;7.180;2023-04-15T06:11:42;12.30;82.00
36450;DHT22;22475;51.390;7.180;2023-04-15T06:14:08;12.40;82.10
36450;DHT22;22475;51.390;7.180;2023-04-15T06:16:35;12.40;82.10
36450;DHT22;22475;51.390;7.180;2023-04-15T06:19:03;12.40;82.10
36450;DHT22;22475;51.390;7.180;2023-04-15T06:21:30;12.30;82.10
36450;DHT22;22475;51.390;7.180;2023-04-15T06:23:58;12.40;82.20
36450;DHT22;22475;51.390;7.180;2023-04-15T06:26:25;12.40;82.30
36450;DHT22;22475;51.390;7.180;2023-04-15T06:28:52;12.40;82.40
36450;DHT22;22475;51.390;7.180;2023-04-15T06:31:19;12.40;82.50
36450;DHT22;22475;51.390;7.180;2023-04-15T06:33:46;12.40;82.70
36450;DHT22;22475;51.390;7.180;2023-04-15T06:36:14;12.40;82.80
36450;DHT22;22475;51.390;7.180;2023-04-15T06:38:41;12.40;82.90
36450;DHT22;22475;51.390;7.180;2023-04-15T06:41:07;12.40;82.90
36450;DHT22;22475;51.390;7.180;2023-04-15T06:43:34;12.40;83.00
36450;DHT22;22475;51.390;7.180;2023-04-15T06:46:01;12.40;83.20
36450;DHT22;22475;51.390;7.180;2023-04-15T06:48:28;12.40;83.20
36450;DHT22;22475;51.390;7.180;2023-04-15T06:50:55;12.40;83.20
36450;DHT22;22475;51.390;7.180;2023-04-15T06:53:24;12.50;83.30
36450;DHT22;22475;51.390;7.180;2023-04-15T06:55:51;12.40;83.30
36450;DHT22;22475;51.390;7.180;2023-04-15T06:58:17;12.50;83.50
36450;DHT22;22475;51.390;7.180;2023-04-15T07:00:44;12.50;83.50
36450;DHT22;22475;51.390;7.180;2023-04-15T07:03:11;12.50;83.60
36450;DHT22;22475;51.390;7.180;2023-04-15T07:05:39;12.50;83.80
36450;DHT22;22475;51.390;7.180;2023-04-15T07:08:06;12.50;83.90
36450;DHT22;22475;51.390;7.180;2023-04-15T07:10:34;12.50;84.00
36450;DHT22;22475;51.390;7.180;2023-04-15T07:13:01;12.50;84.10
36450;DHT22;22475;51.390;7.180;2023-04-15T07:15:28;12.50;84.10
36450;DHT22;22475;51.390;7.180;2023-04-15T07:17:55;12.50;84.30
36450;DHT22;22475;51.390;7.180;2023-04-15T07:20:21;12.50;84.40
36450;DHT22;22475;51.390;7.180;2023-04-15T07:22:48;12.50;84.50
36450;DHT22;22475;51.390;7.180;2023-04-15T07:25:15;12.60;84.40
36450;DHT22;22475;51.390;7.180;2023-04-15T07:27:43;12.60;84.50
36450;DHT22;22475;51.390;7.180;2023-04-15T07:30:11;12.60;84.50
36450;DHT22;22475;51.390;7.180;2023-04-15T07:32:38;12.60;84.40
36450;DHT22;22475;51.390;7.180;2023-04-15T07:35:05;12.60;84.30
36450;DHT22;22475;51.390;7.180;2023-04-15T07:37:32;12.60;84.40
36450;DHT22;22475;51.390;7.180;2023-04-15T07:39:59;12.60;84.40
36450;DHT22;22475;51.390;7.180;2023-04-15T07:42:25;12.60;84.40
36450;DHT22;22475;51.390;7.180;2023-04-15T07:44:55;12.60;84.40
36450;DHT22;22475;51.390;7.180;2023-04-15T07:47:22;12.60;84.50
36450;DHT22;22475;51.390;7.180;2023-04-15T07:49:49;12.60;84.50
36450;DHT22;22475;51.390;7.180;2023-04-15T07:52:16;12.60;84.40
36450;DHT22;22475;51.390;7.180;2023-04-15T07:54:44;12.60;84.50
36450;DHT22;22475;51.390;7.180;2023-04-15T07:57:11;12.60;84.70
36450;DHT22;22475;51.390;7.180;2023-04-15T07:59:38;12.60;85.00
36450;DHT22;22475;51.390;7.180;2023-04-15T08:02:06;12.70;85.20
36450;DHT22;22475;51.390;7.180;2023-04-15T08:04:33;12.60;85.10
36450;DHT22;22475;51.390;7.180;2023-04-15T08:06:59;12.70;85.10
36450;DHT22;22475;51.390;7.180;2023-04-15T08:09:26;12.70;85.30
36450;DHT22;22475;51.390;7.180;2023-04-15T08:11:53;12.70;85.40
36450;DHT22;22475;51.390;7.180;2023-04-15T08:14:21;12.70;85.40
36450;DHT22;22475;51.390;7.180;2023-04-15T08:16:50;12.80;85.50
36450;DHT22;22475;51.390;7.180;2023-04-15T08:19:18;12.80;85.40
36450;DHT22;22475;51.390;7.180;2023-04-15T08:21:45;12.80;85.40
36450;DHT22;22475;51.390;7.180;2023-04-15T08:24:15;12.80;85.40
36450;DHT22;22475;51.390;7.180;2023-04-15T08:26:43;12.80;85.40
36450;DHT22;22475;51.390;7.180;2023-04-15T08:29:11;12.80;85.40
36450;DHT22;22475;51.390;7.180;2023-04-15T08:31:38;12.80;85.40
36450;DHT22;22475;51.390;7.180;2023-04-15T08:34:05;12.80;85.40
36450;DHT22;22475;51.390;7.180;2023-04-15T08:36:33;12.80;85.40
36450;DHT22;22475;51.390;7.180;2023-04-15T08:39:00;12.80;85.40
36450;DHT22;22475;51.390;7.180;2023-04-15T08:41:33;12.80;85.40
36450;DHT22;22475;51.390;7.180;2023-04-15T08:44:02;12.90;85.40
36450;DHT22;22475;51.390;7.180;2023-04-15T08:46:30;12.90;85.30
36450;DHT22;22475;51.390;7.180;2023-04-15T08:48:59;12.90;85.30
36450;DHT22;22475;51.390;7.180;2023-04-15T08:51:31;12.90;85.30
36450;DHT22;22475;51.390;7.180;2023-04-15T08:53:59;12.90;85.30
36450;DHT22;22475;51.390;7.180;2023-04-15T08:56:30;12.90;85.20
36450;DHT22;22475;51.390;7.180;2023-04-15T08:58:58;12.90;85.20
36450;DHT22;22475;51.390;7.180;2023-04-15T09:01:25;12.90;85.20
36450;DHT22;22475;51.390;7.180;2023-04-15T09:03:52;12.90;85.10
36450;DHT22;22475;51.390;7.180;2023-04-15T09:06:20;12.90;85.90
36450;DHT22;22475;51.390;7.180;2023-04-15T09:08:47;12.90;85.10
36450;DHT22;22475;51.390;7.180;2023-04-15T09:11:16;12.90;85.10
36450;DHT22;22475;51.390;7.180;2023-04-15T09:13:43;12.90;85.20
36450;DHT22;22475;51.390;7.180;2023-04-15T09:16:10;12.90;85.20
36450;DHT22;22475;51.390;7.180;2023-04-15T09:18:38;12.90;85.30
36450;DHT22;22475;51.390;7.180;2023-04-15T09:21:06;12.90;85.30
36450;DHT22;22475;51.390;7.180;2023-04-15T09:23:33;12.90;85.30
36450;DHT22;22475;51.390;7.180;2023-04-15T09:26:00;12.90;85.30
36450;DHT22;22475;51.390;7.180;2023-04-15T09:28:29;13.00;85.40
36450;DHT22;22475;51.390;7.180;2023-04-15T09:30:56;13.00;85.40
36450;DHT22;22475;51.390;7.180;2023-04-15T09:33:23;13.00;85.40
36450;DHT22;22475;51.390;7.180;2023-04-15T09:35:59;13.00;85.40
36450;DHT22;22475;51.390;7.180;2023-04-15T09:38:26;13.00;85.50
36450;DHT22;22475;51.390;7.180;2023-04-15T09:40:53;13.00;85.50
36450;DHT22;22475;51.390;7.180;2023-04-15T09:43:21;13.00;85.60
36450;DHT22;22475;51.390;7.180;2023-04-15T09:45:50;13.00;85.70
36450;DHT22;22475;51.390;7.180;2023-04-15T09:48:19;13.00;85.80
36450;DHT22;22475;51.390;7.180;2023-04-15T09:50:46;13.00;86.10
36450;DHT22;22475;51.390;7.180;2023-04-15T09:53:18;13.00;86.30
36450;DHT22;22475;51.390;7.180;2023-04-15T09:55:48;13.00;86.40
36450;DHT22;22475;51.390;7.180;2023-04-15T09:58:19;13.00;86.40
36450;DHT22;22475;51.390;7.180;2023-04-15T10:00:49;13.00;86.40
36450;DHT22;22475;51.390;7.180;2023-04-15T10:03:18;13.10;86.50
36450;DHT22;22475;51.390;7.180;2023-04-15T10:05:47;13.00;86.50
36450;DHT22;22475;51.390;7.180;2023-04-15T10:08:16;13.00;86.50
36450;DHT22;22475;51.390;7.180;2023-04-15T10:10:44;13.00;86.50
36450;DHT22;22475;51.390;7.180;2023-04-15T10:13:12;13.00;86.40
36450;DHT22;22475;51.390;7.180;2023-04-15T10:15:41;13.00;86.40
36450;DHT22;22475;51.390;7.180;2023-04-15T10:18:10;13.00;86.40
36450;DHT22;22475;51.390;7.180;2023-04-15T10:20:39;13.00;86.40
36450;DHT22;22475;51.390;7.180;2023-04-15T10:23:07;13.00;86.40
36450;DHT22;22475;51.390;7.180;2023-04-15T10:25:35;13.00;86.40
36450;DHT22;22475;51.390;7.180;2023-04-15T10:28:04;13.00;86.40
36450;DHT22;22475;51.390;7.180;2023-04-15T10:30:32;13.10;86.60
36450;DHT22;22475;51.390;7.180;2023-04-15T10:32:59;13.10;86.60
36450;DHT22;22475;51.390;7.180;2023-04-15T10:35:28;13.10;86.60
36450;DHT22;22475;51.390;7.180;2023-04-15T10:37:55;13.10;86.50
36450;DHT22;22475;51.390;7.180;2023-04-15T10:40:29;13.10;86.60
36450;DHT22;22475;51.390;7.180;2023-04-15T10:42:58;13.10;86.60
36450;DHT22;22475;51.390;7.180;2023-04-15T10:45:26;13.10;86.60
36450;DHT22;22475;51.390;7.180;2023-04-15T10:47:55;13.10;86.50
36450;DHT22;22475;51.390;7.180;2023-04-15T10:50:26;13.10;86.60
36450;DHT22;22475;51.390;7.180;2023-04-15T10:52:55;13.10;86.60
36450;DHT22;22475;51.390;7.180;2023-04-15T10:55:23;13.10;86.60
36450;DHT22;22475;51.390;7.180;2023-04-15T10:57:51;13.10;86.60
36450;DHT22;22475;51.390;7.180;2023-04-15T11:00:20;13.10;86.50
36450;DHT22;22475;51.390;7.180;2023-04-15T11:02:52;13.10;86.40
36450;DHT22;22475;51.390;7.180;2023-04-15T11:05:21;13.10;86.50
36450;DHT22;22475;51.390;7.180;2023-04-15T11:07:51;13.10;86.60
36450;DHT22;22475;51.390;7.180;2023-04-15T11:10:52;13.10;86.70
36450;DHT22;22475;51.390;7.180;2023-04-15T11:13:20;13.10;86.80
36450;DHT22;22475;51.390;7.180;2023-04-15T11:15:48;13.10;86.70
36450;DHT22;22475;51.390;7.180;2023-04-15T11:18:17;13.10;86.70
36450;DHT22;22475;51.390;7.180;2023-04-15T11:20:46;13.10;86.70
36450;DHT22;22475;51.390;7.180;2023-04-15T11:23:14;13.10;86.80
36450;DHT22;22475;51.390;7.180;2023-04-15T11:25:42;13.10;86.80
36450;DHT22;22475;51.390;7.180;2023-04-15T11:28:10;13.10;87.60
36450;DHT22;22475;51.390;7.180;2023-04-15T11:30:37;13.10;86.80
36450;DHT22;22475;51.390;7.180;2023-04-15T11:33:06;13.10;86.80
36450;DHT22;22475;51.390;7.180;2023-04-15T11:35:34;13.10;86.80
36450;DHT22;22475;51.390;7.180;2023-04-15T11:38:02;13.10;86.80
36450;DHT22;22475;51.390;7.180;2023-04-15T11:40:31;13.10;86.80
36450;DHT22;22475;51.390;7.180;2023-04-15T11:43:07;13.10;86.80
36450;DHT22;22475;51.390;7.180;2023-04-15T11:45:34;13.10;86.80
36450;DHT22;22475;51.390;7.180;2023-04-15T11:48:06;13.10;86.80
36450;DHT22;22475;51.390;7.180;2023-04-15T11:50:33;13.10;86.80
36450;DHT22;22475;51.390;7.180;2023-04-15T11:53:02;13.10;86.80
36450;DHT22;22475;51.390;7.180;2023-04-15T11:55:31;13.10;86.80
36450;DHT22;22475;51.390;7.180;2023-04-15T11:58:10;13.10;86.80
36450;DHT22;22475;51.390;7.180;2023-04-15T12:00:38;13.10;86.90
36450;DHT22;22475;51.390;7.180;2023-04-15T12:03:23;13.10;87.00
36450;DHT22;22475;51.390;7.180;2023-04-15T12:06:04;13.10;87.00
36450;DHT22;22475;51.390;7.180;2023-04-15T12:08:52;13.10;87.00
36450;DHT22;22475;51.390;7.180;2023-04-15T12:11:29;13.10;87.00
36450;DHT22;22475;51.390;7.180;2023-04-15T12:13:58;13.10;87.00
36450;DHT22;22475;51.390;7.180;2023-04-15T12:16:27;13.10;87.00
36450;DHT22;22475;51.390;7.180;2023-04-15T12:18:55;13.10;87.00
36450;DHT22;22475;51.390;7.180;2023-04-15T12:21:26;13.10;87.00
36450;DHT22;22475;51.390;7.180;2023-04-15T12:23:55;13.10;87.00
36450;DHT22;22475;51.390;7.180;2023-04-15T12:26:27;13.10;87.80
36450;DHT22;22475;51.390;7.180;2023-04-15T12:28:54;13.10;87.10
36450;DHT22;22475;51.390;7.180;2023-04-15T12:31:22;13.00;87.10
36450;DHT22;22475;51.390;7.180;2023-04-15T12:33:49;13.00;87.20
36450;DHT22;22475;51.390;7.180;2023-04-15T12:36:15;13.00;87.10
36450;DHT22;22475;51.390;7.180;2023-04-15T12:38:42;13.10;87.20
36450;DHT22;22475;51.390;7.180;2023-04-15T12:41:09;13.00;87.10
36450;DHT22;22475;51.390;7.180;2023-04-15T12:43:37;13.10;87.10
36450;DHT22;22475;51.390;7.180;2023-04-15T12:46:04;13.00;87.10
36450;DHT22;22475;51.390;7.180;2023-04-15T12:48:31;13.10;87.20
36450;DHT22;22475;51.390;7.180;2023-04-15T12:50:58;13.00;87.20
36450;DHT22;22475;51.390;7.180;2023-04-15T12:53:25;13.10;87.20
36450;DHT22;22475;51.390;7.180;2023-04-15T12:55:53;13.00;87.20
36450;DHT22;22475;51.390;7.180;2023-04-15T12:58:20;13.00;87.20
36450;DHT22;22475;51.390;7.180;2023-04-15T13:00:48;13.00;87.30
36450;DHT22;22475;51.390;7.180;2023-04-15T13:03:15;13.00;87.30
36450;DHT22;22475;51.390;7.180;2023-04-15T13:05:42;13.10;87.30
36450;DHT22;22475;51.390;7.180;2023-04-15T13:08:11;13.10;87.40
36450;DHT22;22475;51.390;7.180;2023-04-15T13:10:38;13.00;87.30
36450;DHT22;22475;51.390;7.180;2023-04-15T13:13:07;13.00;87.30
36450;DHT22;22475;51.390;7.180;2023-04-15T13:15:34;13.00;87.30
36450;DHT22;22475;51.390;7.180;2023-04-15T13:18:02;13.10;87.40
36450;DHT22;22475;51.390;7.180;2023-04-15T13:20:30;13.10;87.50
36450;DHT22;22475;51.390;7.180;2023-04-15T13:22:57;13.10;87.60
36450;DHT22;22475;51.390;7.180;2023-04-15T13:25:23;13.10;87.60
36450;DHT22;22475;51.390;7.180;2023-04-15T13:27:51;13.10;87.60
36450;DHT22;22475;51.390;7.180;2023-04-15T13:30:18;13.10;87.70
36450;DHT22;22475;51.390;7.180;2023-04-15T13:32:45;13.10;88.50
36450;DHT22;22475;51.390;7.180;2023-04-15T13:35:13;13.10;87.70
36450;DHT22;22475;51.390;7.180;2023-04-15T13:37:39;13.10;87.80
36450;DHT22;22475;51.390;7.180;2023-04-15T13:40:07;13.10;87.80
36450;DHT22;22475;51.390;7.180;2023-04-15T13:42:34;13.10;87.90
36450;DHT22;22475;51.390;7.180;2023-04-15T13:45:02;13.10;87.90
36450;DHT22;22475;51.390;7.180;2023-04-15T13:47:28;13.10;87.90
36450;DHT22;22475;51.390;7.180;2023-04-15T13:49:55;13.10;88.00
36450;DHT22;22475;51.390;7.180;2023-04-15T13:52:24;13.10;88.10
36450;DHT22;22475;51.390;7.180;2023-04-15T13:54:50;13.10;88.20
36450;DHT22;22475;51.390;7.180;2023-04-15T13:57:17;13.10;88.20
36450;DHT22;22475;51.390;7.180;2023-04-15T13:59:44;13.10;88.40
36450;DHT22;22475;51.390;7.180;2023-04-15T14:02:10;13.10;88.50
36450;DHT22;22475;51.390;7.180;2023-04-15T14:04:37;13.10;88.60
36450;DHT22;22475;51.390;7.180;2023-04-15T14:07:04;13.10;88.60
36450;DHT22;22475;51.390;7.180;2023-04-15T14:09:32;13.10;88.70
36450;DHT22;22475;51.390;7.180;2023-04-15T14:12:00;13.10;88.70
36450;DHT22;22475;51.390;7.180;2023-04-15T14:14:27;13.20;88.80
36450;DHT22;22475;51.390;7.180;2023-04-15T14:16:54;13.10;88.90
36450;DHT22;22475;51.390;7.180;2023-04-15T14:19:21;13.20;89.00
36450;DHT22;22475;51.390;7.180;2023-04-15T14:21:49;13.20;89.00
36450;DHT22;22475;51.390;7.180;2023-04-15T14:24:15;13.20;89.00
36450;DHT22;22475;51.390;7.180;2023-04-15T14:26:44;13.20;89.10
36450;DHT22;22475;51.390;7.180;2023-04-15T14:29:10;13.20;89.30
36450;DHT22;22475;51.390;7.180;2023-04-15T14:31:37;13.20;89.40
36450;DHT22;22475;51.390;7.180;2023-04-15T14:34:04;13.20;89.50
36450;DHT22;22475;51.390;7.180;2023-04-15T14:36:31;13.20;89.60
36450;DHT22;22475;51.390;7.180;2023-04-15T14:38:58;13.20;89.60
36450;DHT22;22475;51.390;7.180;2023-04-15T14:41:25;13.20;89.60
36450;DHT22;22475;51.390;7.180;2023-04-15T14:43:53;13.20;89.60
36450;DHT22;22475;51.390;7.180;2023-04-15T14:46:21;13.20;89.60
36450;DHT22;22475;51.390;7.180;2023-04-15T14:48:48;13.20;89.70
36450;DHT22;22475;51.390;7.180;2023-04-15T14:51:15;13.20;89.80
36450;DHT22;22475;51.390;7.180;2023-04-15T14:53:42;13.20;89.90
36450;DHT22;22475;51.390;7.180;2023-04-15T14:56:09;13.30;90.00
36450;DHT22;22475;51.390;7.180;2023-04-15T14:58:35;13.30;90.10
36450;DHT22;22475;51.390;7.180;2023-04-15T15:01:04;13.30;90.10
36450;DHT22;22475;51.390;7.180;2023-04-15T15:03:30;13.30;90.20
36450;DHT22;22475;51.390;7.180;2023-04-15T15:05:57;13.30;90.20
36450;DHT22;22475;51.390;7.180;2023-04-15T15:08:24;13.30;90.30
36450;DHT22;22475;51.390;7.180;2023-04-15T15:10:51;13.30;90.30
36450;DHT22;22475;51.390;7.180;2023-04-15T15:13:18;13.30;90.30
36450;DHT22;22475;51.390;7.180;2023-04-15T15:15:45;13.30;90.60
36450;DHT22;22475;51.390;7.180;2023-04-15T15:18:15;13.30;90.30
36450;DHT22;22475;51.390;7.180;2023-04-15T15:20:43;13.30;90.30
36450;DHT22;22475;51.390;7.180;2023-04-15T15:23:10;13.30;90.20
36450;DHT22;22475;51.390;7.180;2023-04-15T15:25:36;13.30;90.20
36450;DHT22;22475;51.390;7.180;2023-04-15T15:28:03;13.30;90.20
36450;DHT22;22475;51.390;7.180;2023-04-15T15:30:30;13.30;90.30
36450;DHT22;22475;51.390;7.180;2023-04-15T15:32:57;13.30;90.20